VHHH/HKG METAR and TAF weather

Enter ICAO airport designator
Station Type Date Time Source
VHHH METAR 2022/06/25 23:30 UTC NOAA

VHHH 252330Z 24004KT 210V270 9999 FEW013 29/25 Q1010 NOSIG


Station Type Date Time Source
VHHH Decoded METAR 2022/06/25 23:30 UTC NOAA

Hong Kong Inter-National Airport, Hong Kong (VHHH) 22-20N 114-11E 24M
Jun 25, 2022 - 07:30 PM EDT / 2022.06.25 2330 UTC
Wind: from the WSW (240 degrees) at 5 MPH (4 KT) (direction variable):0
Visibility: greater than 7 mile(s):0
Sky conditions: mostly clear
Temperature: 84 F (29 C)
Dew Point: 77 F (25 C)
Relative Humidity: 79%
Pressure (altimeter): 29.83 in. Hg (1010 hPa)
ob: VHHH 252330Z 24004KT 210V270 9999 FEW013 29/25 Q1010 NOSIG
cycle: 23

Station Type Date Time Source
VHHH TAF 2022/06/25 18:25 UTC NOAA

TAF VHHH 251700Z 2518/2624 17010KT 9999 FEW020 TX33/2606Z TN28/2522Z TN29/2622Z
TEMPO 2518/2522 VRB05KT
TEMPO 2522/2602 4000 SHRA FEW010CB SCT020
TEMPO 2602/2609 24010KT

Example: see airport list